Time;durP1;ratioP1;P1;durP2;ratioP2;P2;SDS_P1;SDS_P2;PMS_P1;PMS_P2;Temp;Humidity;BMP_temperature;BMP_pressure;BME280_temperature;BME280_humidity;BME280_pressure;Samples;Min_cycle;Max_cycle;Signal;HPM_P1;HPM_P2
2021/07/31 00:01:09;;;;;;;16.17;11.10;;;;;;;22.07;100.00;98506.75;1710429;82;21158;-65
2021/07/31 00:03:37;;;;;;;20.32;11.63;;;;;;;22.08;100.00;98508.95;1710196;83;20958;-66
2021/07/31 00:06:06;;;;;;;24.70;12.05;;;;;;;22.08;100.00;98504.93;1709949;83;21512;-64
2021/07/31 00:08:35;;;;;;;20.35;12.30;;;;;;;22.10;100.00;98509.24;1710292;82;21952;-65
2021/07/31 00:11:05;;;;;;;20.72;11.95;;;;;;;22.10;100.00;98511.94;1711118;84;21377;-66
2021/07/31 00:13:34;;;;;;;20.40;12.00;;;;;;;22.09;100.00;98508.00;1710471;82;22145;-66
2021/07/31 00:16:03;;;;;;;19.70;12.15;;;;;;;22.06;100.00;98503.69;1710191;82;20949;-66
2021/07/31 00:18:33;;;;;;;15.08;11.85;;;;;;;22.05;100.00;98503.78;1698056;83;21548;-66
2021/07/31 00:21:02;;;;;;;21.05;11.90;;;;;;;22.03;100.00;98509.70;1710839;82;21460;-65
2021/07/31 00:23:30;;;;;;;19.75;11.33;;;;;;;21.99;100.00;98509.02;1711082;83;20977;-65
2021/07/31 00:25:58;;;;;;;118.87;17.27;;;;;;;22.00;100.00;98514.78;1710027;83;21990;-64
2021/07/31 00:28:27;;;;;;;103.50;17.48;;;;;;;22.03;100.00;98515.06;1710433;82;20938;-67
2021/07/31 00:30:55;;;;;;;43.58;13.60;;;;;;;22.03;100.00;98519.99;1710660;84;21024;-69
2021/07/31 00:33:24;;;;;;;23.65;12.10;;;;;;;21.99;100.00;98513.91;1709891;83;20945;-66
2021/07/31 00:35:53;;;;;;;16.35;10.80;;;;;;;21.97;100.00;98516.31;1711018;84;21404;-65
2021/07/31 00:38:21;;;;;;;17.17;10.60;;;;;;;21.92;100.00;98509.02;1711049;82;21138;-67
2021/07/31 00:40:51;;;;;;;16.35;9.70;;;;;;;21.89;100.00;98515.45;1710991;82;21440;-66
2021/07/31 00:43:19;;;;;;;17.48;10.18;;;;;;;21.89;100.00;98518.14;1712799;82;21480;-67
2021/07/31 00:45:49;;;;;;;17.17;11.00;;;;;;;21.89;100.00;98516.80;1713988;82;20953;-67
2021/07/31 00:48:18;;;;;;;18.82;10.72;;;;;;;21.87;100.00;98520.05;1714368;82;21428;-66
2021/07/31 00:50:47;;;;;;;43.83;12.05;;;;;;;21.87;100.00;98517.37;1711315;82;21448;-66
2021/07/31 00:53:15;;;;;;;116.85;16.50;;;;;;;21.87;100.00;98519.19;1714187;83;20921;-66
2021/07/31 00:55:44;;;;;;;19.07;10.60;;;;;;;21.85;100.00;98509.89;1711104;83;21542;-66
2021/07/31 00:58:13;;;;;;;18.85;10.55;;;;;;;21.87;100.00;98505.28;1714081;82;21041;-66
2021/07/31 01:00:43;;;;;;;15.65;10.05;;;;;;;21.87;100.00;98511.13;1714024;83;21547;-66
2021/07/31 01:03:12;;;;;;;16.00;10.58;;;;;;;21.82;100.00;98518.61;1714108;82;21170;-66
2021/07/31 01:05:41;;;;;;;17.40;10.85;;;;;;;21.75;100.00;98518.57;1714333;83;21637;-66
2021/07/31 01:08:10;;;;;;;15.88;10.00;;;;;;;21.68;100.00;98510.89;1714168;82;22435;-66
2021/07/31 01:10:40;;;;;;;14.68;10.05;;;;;;;21.64;100.00;98511.18;1713944;82;21504;-66
2021/07/31 01:13:10;;;;;;;15.05;9.58;;;;;;;21.61;100.00;98510.02;1714063;82;21527;-66
2021/07/31 01:16:02;;;;;;;16.27;9.08;;;;;;;21.60;100.00;98505.61;1714115;82;21159;-66
2021/07/31 01:18:30;;;;;;;15.95;9.63;;;;;;;21.62;100.00;98507.73;1714145;83;20935;-65
2021/07/31 01:21:00;;;;;;;20.17;9.95;;;;;;;21.61;100.00;98504.18;1714056;83;21487;-65
2021/07/31 01:23:29;;;;;;;20.68;9.85;;;;;;;21.60;100.00;98503.80;1711492;82;21037;-65
2021/07/31 01:25:58;;;;;;;14.95;9.70;;;;;;;21.59;100.00;98503.89;1713992;82;21503;-65
2021/07/31 01:28:26;;;;;;;15.68;9.25;;;;;;;21.58;100.00;98500.34;1714114;83;21168;-66
2021/07/31 01:30:55;;;;;;;19.00;9.25;;;;;;;21.56;100.00;98496.89;1711388;82;20988;-66
2021/07/31 01:33:23;;;;;;;15.83;8.65;;;;;;;21.54;100.00;98492.09;1714157;82;20957;-66
2021/07/31 01:35:53;;;;;;;14.73;8.90;;;;;;;21.54;100.00;98485.86;1714365;82;20982;-66
2021/07/31 01:38:27;;;;;;;12.15;8.78;;;;;;;21.53;100.00;98491.71;1713956;83;21546;-66
2021/07/31 01:40:56;;;;;;;18.27;9.85;;;;;;;21.54;100.00;98496.59;1714280;82;21944;-66
2021/07/31 01:43:25;;;;;;;13.68;9.65;;;;;;;21.52;100.00;98501.20;1713625;82;20974;-66
2021/07/31 01:45:53;;;;;;;16.05;8.93;;;;;;;21.51;100.00;98502.16;1714341;83;20954;-66
2021/07/31 01:48:22;;;;;;;14.55;9.20;;;;;;;21.49;100.00;98503.59;1714156;83;21048;-66
2021/07/31 01:50:51;;;;;;;14.38;9.38;;;;;;;21.51;100.00;98506.17;1714147;83;21009;-66
2021/07/31 01:53:21;;;;;;;15.03;9.00;;;;;;;21.52;100.00;98510.59;1714138;82;21166;-63
2021/07/31 01:55:51;;;;;;;15.23;9.38;;;;;;;21.54;100.00;98514.04;1714041;82;20933;-62
2021/07/31 01:58:22;;;;;;;14.60;10.35;;;;;;;21.53;100.00;98510.97;1684631;83;20970;-66
2021/07/31 02:00:55;;;;;;;11.48;8.80;;;;;;;21.51;100.00;98513.75;1707719;83;21022;-66
2021/07/31 02:03:23;;;;;;;11.22;8.85;;;;;;;21.52;100.00;98514.13;1739566;81;20962;-66
2021/07/31 02:05:53;;;;;;;12.45;8.75;;;;;;;21.53;100.00;98506.95;1739645;81;21173;-66
2021/07/31 02:08:23;;;;;;;12.20;8.70;;;;;;;21.51;100.00;98510.20;1732794;81;21488;-66
2021/07/31 02:10:54;;;;;;;16.57;9.73;;;;;;;21.48;100.00;98513.94;1684520;84;20966;-66
2021/07/31 02:13:22;;;;;;;13.62;9.25;;;;;;;21.45;100.00;98510.58;1741990;81;20986;-66
2021/07/31 02:15:51;;;;;;;14.68;9.13;;;;;;;21.42;100.00;98509.42;1739964;81;21040;-66
2021/07/31 02:18:21;;;;;;;12.93;9.40;;;;;;;21.37;100.00;98508.35;1742196;82;21133;-66
2021/07/31 02:20:50;;;;;;;13.55;9.08;;;;;;;21.31;100.00;98523.00;1742099;81;21012;-66
2021/07/31 02:23:38;;;;;;;14.25;9.85;;;;;;;21.27;100.00;98518.73;1742211;81;21495;-67
2021/07/31 02:26:24;;;;;;;17.30;9.75;;;;;;;21.30;100.00;98523.09;1740261;81;20976;-67
2021/07/31 02:28:54;;;;;;;16.97;10.03;;;;;;;21.30;100.00;98517.73;1739730;81;21444;-67
2021/07/31 02:31:23;;;;;;;15.00;9.35;;;;;;;21.29;100.00;98526.73;1727032;81;21478;-67
2021/07/31 02:33:54;;;;;;;13.65;9.05;;;;;;;21.28;100.00;98528.98;1682246;83;20980;-67
2021/07/31 02:36:23;;;;;;;18.02;9.85;;;;;;;21.25;100.00;98534.06;1681275;83;20973;-67
2021/07/31 02:38:55;;;;;;;;;;;;;;;21.23;100.00;98533.77;1716425;83;21026;-65
2021/07/31 02:41:24;;;;;;;21.97;10.15;;;;;;;21.21;100.00;98527.12;1714208;83;20429;-67
2021/07/31 02:43:53;;;;;;;15.98;9.45;;;;;;;21.22;100.00;98524.82;1684894;83;21542;-66
2021/07/31 02:46:22;;;;;;;19.42;10.30;;;;;;;21.21;100.00;98527.59;1713684;83;21574;-65
2021/07/31 02:48:50;;;;;;;20.23;10.23;;;;;;;21.19;100.00;98533.05;1714193;83;21528;-65
2021/07/31 02:51:19;;;;;;;22.98;10.78;;;;;;;21.19;100.00;98537.55;1713988;83;20969;-65
2021/07/31 02:54:06;;;;;;;13.95;9.15;;;;;;;21.18;100.00;98543.87;1714144;83;21440;-66
2021/07/31 02:56:34;;;;;;;12.98;7.87;;;;;;;21.17;100.00;98548.38;1714082;83;21232;-66
2021/07/31 02:59:05;;;;;;;18.82;8.78;;;;;;;21.20;100.00;98553.55;1713824;83;21551;-66
2021/07/31 03:01:34;;;;;;;11.75;8.30;;;;;;;21.19;100.00;98554.98;1744302;81;20854;-66
2021/07/31 03:04:04;;;;;;;10.68;8.63;;;;;;;21.16;100.00;98553.83;1743021;81;21471;-66
2021/07/31 03:06:33;;;;;;;14.80;8.20;;;;;;;21.14;100.00;98556.59;1738890;81;20854;-66
2021/07/31 03:09:03;;;;;;;35.68;10.10;;;;;;;21.14;100.00;98559.75;1735194;81;21436;-66
2021/07/31 03:11:31;;;;;;;14.45;6.70;;;;;;;21.14;100.00;98564.64;1718457;82;21432;-66
2021/07/31 03:14:00;;;;;;;9.43;6.17;;;;;;;21.15;100.00;98565.03;1707219;82;20961;-63
2021/07/31 03:16:30;;;;;;;41.37;7.85;;;;;;;21.15;100.00;98566.84;1723254;82;20910;-64
2021/07/31 03:19:00;;;;;;;11.63;8.15;;;;;;;21.11;100.00;98573.34;1739008;81;20909;-63
2021/07/31 03:21:28;;;;;;;40.65;9.30;;;;;;;21.10;100.00;98572.48;1723164;81;21787;-66
2021/07/31 03:24:00;;;;;;;16.10;8.48;;;;;;;21.06;100.00;98576.29;1738312;82;20961;-66
2021/07/31 03:26:29;;;;;;;12.75;8.35;;;;;;;21.05;100.00;98575.42;1719704;81;21045;-65
2021/07/31 03:28:58;;;;;;;17.20;9.40;;;;;;;21.06;100.00;98577.16;1739017;82;21563;-63
2021/07/31 03:31:27;;;;;;;25.20;10.05;;;;;;;21.07;100.00;98583.37;1738836;81;21090;-62
2021/07/31 03:33:57;;;;;;;14.83;8.50;;;;;;;21.06;100.00;98579.84;1738908;81;21112;-65
2021/07/31 03:36:27;;;;;;;13.38;8.40;;;;;;;21.05;100.00;98578.58;1737141;81;21579;-64
2021/07/31 03:39:00;;;;;;;25.00;9.00;;;;;;;21.06;100.00;98581.17;1716725;82;21551;-63
2021/07/31 03:41:29;;;;;;;14.47;8.40;;;;;;;21.09;100.00;98584.63;1739143;81;20972;-65
2021/07/31 03:43:58;;;;;;;11.03;8.68;;;;;;;21.12;100.00;98583.98;1734534;81;20969;-62
2021/07/31 03:46:27;;;;;;;13.28;10.00;;;;;;;21.16;100.00;98582.84;1710513;82;21139;-64
2021/07/31 03:48:56;;;;;;;79.07;12.88;;;;;;;21.19;100.00;98585.83;1709713;84;20997;-63
2021/07/31 03:51:25;;;;;;;15.65;9.28;;;;;;;21.18;100.00;98584.10;1709616;84;21665;-63
2021/07/31 03:53:55;;;;;;;26.23;10.35;;;;;;;21.16;100.00;98577.96;1709671;84;20974;-63
2021/07/31 03:56:24;;;;;;;16.27;9.80;;;;;;;21.14;100.00;98582.08;1710026;84;21452;-64
2021/07/31 03:58:57;;;;;;;16.62;10.65;;;;;;;21.10;100.00;98584.55;1709813;84;21118;-62
2021/07/31 04:01:26;;;;;;;16.87;11.00;;;;;;;21.08;100.00;98590.95;1709458;84;21012;-63
2021/07/31 04:03:56;;;;;;;23.70;11.80;;;;;;;21.07;100.00;98584.72;1709203;84;21543;-64
2021/07/31 04:06:25;;;;;;;43.63;13.10;;;;;;;21.09;100.00;98584.63;1709895;84;20968;-64
2021/07/31 04:08:54;;;;;;;21.85;11.40;;;;;;;21.12;100.00;98581.30;1687547;84;20954;-64
2021/07/31 04:11:41;;;;;;;14.53;10.82;;;;;;;21.13;100.00;98587.05;1709733;84;21472;-63
2021/07/31 04:14:29;;;;;;;18.85;11.22;;;;;;;21.13;100.00;98588.39;1709663;84;21025;-63
2021/07/31 04:17:03;;;;;;;15.70;12.07;;;;;;;21.15;100.00;98586.48;1709004;84;20981;-64
2021/07/31 04:19:31;;;;;;;18.87;11.60;;;;;;;21.21;100.00;98584.78;1709660;84;21040;-64
2021/07/31 04:22:01;;;;;;;23.87;11.78;;;;;;;21.30;100.00;98591.02;1709351;84;21127;-64
2021/07/31 04:24:31;;;;;;;17.55;11.70;;;;;;;21.39;100.00;98597.66;1707955;84;21329;-64
2021/07/31 04:26:59;;;;;;;16.50;12.05;;;;;;;21.45;100.00;98593.28;1708213;84;20981;-63
2021/07/31 04:29:27;;;;;;;19.50;12.55;;;;;;;21.51;100.00;98598.28;1707929;84;21011;-63
2021/07/31 04:31:56;;;;;;;22.90;12.70;;;;;;;21.59;100.00;98603.19;1722172;83;21044;-64
2021/07/31 04:34:29;;;;;;;19.55;11.50;;;;;;;21.65;100.00;98598.80;1729993;82;21432;-64
2021/07/31 04:36:57;;;;;;;12.95;11.05;;;;;;;21.72;100.00;98598.81;1683916;84;21531;-65
2021/07/31 04:39:25;;;;;;;12.47;10.95;;;;;;;21.78;100.00;98608.35;1721242;83;21003;-66
2021/07/31 04:41:54;;;;;;;17.75;10.63;;;;;;;21.84;100.00;98607.98;1710104;83;21434;-66
2021/07/31 04:44:22;;;;;;;14.43;11.03;;;;;;;21.92;100.00;98612.41;1724058;81;20950;-65
2021/07/31 04:46:50;;;;;;;18.70;11.43;;;;;;;22.05;100.00;98613.90;1731716;81;20914;-65
2021/07/31 04:49:18;;;;;;;17.57;11.35;;;;;;;22.16;100.00;98622.16;1731691;81;21468;-65
2021/07/31 04:51:46;;;;;;;14.73;11.83;;;;;;;22.25;100.00;98621.14;1728788;82;21022;-66
2021/07/31 04:54:15;;;;;;;16.77;11.43;;;;;;;22.38;100.00;98615.87;1719778;82;20965;-64
2021/07/31 04:56:46;;;;;;;33.20;11.90;;;;;;;22.49;100.00;98619.23;1683440;84;21030;-65
2021/07/31 04:59:17;;;;;;;16.73;11.18;;;;;;;22.61;100.00;98618.45;1712849;83;21006;-65
2021/07/31 05:01:46;;;;;;;16.70;11.08;;;;;;;22.74;100.00;98626.14;1683199;83;21559;-67
2021/07/31 05:04:14;;;;;;;16.57;11.05;;;;;;;22.86;100.00;98620.49;1719020;82;20876;-68
2021/07/31 05:06:42;;;;;;;13.58;10.50;;;;;;;22.95;100.00;98619.89;1739707;82;21448;-66
2021/07/31 05:09:10;;;;;;;15.78;9.80;;;;;;;23.04;100.00;98620.64;1739430;82;20977;-65
2021/07/31 05:11:37;;;;;;;16.57;10.15;;;;;;;23.16;100.00;98627.05;1739116;81;21025;-66
2021/07/31 05:14:08;;;;;;;16.07;10.30;;;;;;;23.24;100.00;98619.36;1715639;82;21575;-67
2021/07/31 05:16:36;;;;;;;12.33;10.08;;;;;;;23.33;100.00;98627.31;1736285;82;22120;-68
2021/07/31 05:19:04;;;;;;;12.07;9.80;;;;;;;23.40;100.00;98626.80;1689531;83;20894;-68
2021/07/31 05:21:32;;;;;;;17.80;9.73;;;;;;;23.48;100.00;98632.53;1697204;83;20917;-68
2021/07/31 05:24:00;;;;;;;12.40;10.20;;;;;;;23.57;100.00;98628.39;1697032;83;20858;-68
2021/07/31 05:26:29;;;;;;;11.30;9.60;;;;;;;23.65;100.00;98626.53;1711404;83;21134;-69
2021/07/31 05:28:57;;;;;;;15.55;9.48;;;;;;;23.75;100.00;98619.58;1711191;82;21499;-68
2021/07/31 05:31:26;;;;;;;13.40;9.30;;;;;;;23.81;100.00;98620.51;1711094;82;20980;-66
2021/07/31 05:33:55;;;;;;;11.78;8.83;;;;;;;23.89;100.00;98619.50;1711143;82;20897;-69
2021/07/31 05:36:23;;;;;;;12.30;8.48;;;;;;;23.97;100.00;98623.88;1711261;82;21396;-69
2021/07/31 05:38:51;;;;;;;15.88;7.70;;;;;;;24.09;100.00;98626.20;1711117;83;21156;-69
2021/07/31 05:41:20;;;;;;;9.58;7.40;;;;;;;24.17;100.00;98627.42;1711067;84;20850;-68
2021/07/31 05:43:49;;;;;;;9.80;7.37;;;;;;;24.24;100.00;98618.91;1710533;82;21079;-68
2021/07/31 05:46:20;;;;;;;11.90;7.62;;;;;;;24.32;100.00;98616.08;1708157;82;20966;-68
2021/07/31 05:48:49;;;;;;;9.80;7.85;;;;;;;24.42;100.00;98614.45;1699516;83;20894;-69
2021/07/31 05:51:17;;;;;;;15.48;8.25;;;;;;;24.55;100.00;98612.23;1689133;84;21096;-69
2021/07/31 05:53:46;;;;;;;9.75;6.50;;;;;;;24.64;100.00;98608.91;1710809;82;20902;-67
2021/07/31 05:56:18;;;;;;;7.62;6.75;;;;;;;24.72;100.00;98602.47;1713712;82;20873;-68
2021/07/31 05:58:44;;;;;;;15.80;7.17;;;;;;;24.80;100.00;98599.59;1711019;82;20973;-68
2021/07/31 06:01:13;;;;;;;17.57;7.45;;;;;;;24.90;100.00;98606.52;1683338;83;21091;-69
2021/07/31 06:03:41;;;;;;;9.75;6.40;;;;;;;25.02;100.00;98608.34;1711337;82;21158;-68
2021/07/31 06:06:10;;;;;;;8.48;6.37;;;;;;;25.15;100.00;98604.78;1711591;82;21070;-68
2021/07/31 06:08:38;;;;;;;12.82;6.08;;;;;;;25.29;100.00;98596.51;1711379;82;20980;-69
2021/07/31 06:11:06;;;;;;;5.75;5.25;;;;;;;25.43;100.00;98597.68;1711527;82;20987;-68
2021/07/31 06:13:35;;;;;;;11.68;5.87;;;;;;;25.55;100.00;98589.17;1711306;82;21439;-68
2021/07/31 06:16:09;;;;;;;7.85;5.20;;;;;;;25.67;100.00;98586.42;1711352;82;21169;-69
2021/07/31 06:18:39;;;;;;;8.48;5.03;;;;;;;25.79;100.00;98588.66;1711199;82;20940;-68
2021/07/31 06:21:16;;;;;;;6.83;4.47;;;;;;;25.90;100.00;98577.89;1711566;82;20925;-69
2021/07/31 06:23:45;;;;;;;7.10;4.75;;;;;;;26.02;100.00;98581.50;1711286;82;21570;-68
2021/07/31 06:26:13;;;;;;;12.13;5.45;;;;;;;26.10;100.00;98583.11;1711559;82;20987;-68
2021/07/31 06:28:41;;;;;;;7.42;5.17;;;;;;;26.17;100.00;98586.20;1711332;82;21100;-68
2021/07/31 06:31:09;;;;;;;6.20;4.75;;;;;;;26.24;100.00;98583.37;1711319;82;20944;-68
2021/07/31 06:33:37;;;;;;;8.55;4.92;;;;;;;26.33;100.00;98581.33;1711226;82;20936;-68
2021/07/31 06:36:05;;;;;;;4.53;4.12;;;;;;;26.42;100.00;98577.03;1711276;82;20873;-69
2021/07/31 06:38:32;;;;;;;5.33;4.08;;;;;;;26.48;100.00;98574.69;1711341;82;20881;-68
2021/07/31 06:41:00;;;;;;;7.58;4.80;;;;;;;26.56;100.00;98571.41;1711332;82;21164;-70
2021/07/31 06:43:28;;;;;;;5.60;4.30;;;;;;;26.63;100.00;98576.69;1711238;82;20987;-69
2021/07/31 06:45:56;;;;;;;6.90;5.28;;;;;;;26.72;100.00;98571.02;1716879;82;21583;-68
2021/07/31 06:48:23;;;;;;;8.65;4.45;;;;;;;26.81;100.00;98568.42;1692502;84;20938;-64
2021/07/31 06:50:52;;;;;;;7.72;4.75;;;;;;;26.91;100.00;98565.33;1712904;83;20937;-66
2021/07/31 06:53:22;;;;;;;8.35;4.50;;;;;;;27.02;100.00;98562.30;1712838;82;21147;-64
2021/07/31 06:55:50;;;;;;;7.83;4.65;;;;;;;27.11;100.00;98569.65;1707625;83;20929;-65
2021/07/31 06:58:19;;;;;;;12.85;4.75;;;;;;;27.21;100.00;98567.41;1731836;82;21029;-62
2021/07/31 07:00:48;;;;;;;5.62;4.40;;;;;;;27.33;100.00;98568.72;1731666;82;21079;-62
2021/07/31 07:03:16;;;;;;;4.53;3.85;;;;;;;27.42;100.00;98563.88;1731674;83;21704;-63
2021/07/31 07:05:43;;;;;;;7.35;4.28;;;;;;;27.52;100.00;98558.08;1731744;83;21135;-63
2021/07/31 07:08:12;;;;;;;8.48;3.85;;;;;;;27.60;100.00;98555.58;1731625;82;21421;-62
2021/07/31 07:10:39;;;;;;;6.75;3.85;;;;;;;27.68;100.00;98553.10;1731681;82;21500;-61
2021/07/31 07:13:07;;;;;;;7.53;3.80;;;;;;;27.77;100.00;98550.95;1731581;82;21428;-61
2021/07/31 07:15:36;;;;;;;5.62;3.65;;;;;;;27.86;100.00;98552.02;1731628;83;20927;-63
2021/07/31 07:18:05;;;;;;;6.15;3.67;;;;;;;27.94;100.00;98549.53;1731659;82;21042;-65
2021/07/31 07:20:34;;;;;;;5.42;3.67;;;;;;;28.03;100.00;98539.73;1731542;82;20910;-64
2021/07/31 07:23:02;;;;;;;10.40;4.00;;;;;;;28.13;100.00;98544.22;1731756;82;20999;-65
2021/07/31 07:25:33;;;;;;;4.67;3.80;;;;;;;28.24;100.00;98544.66;1731682;83;21425;-65
2021/07/31 07:28:01;;;;;;;9.28;3.58;;;;;;;28.34;100.00;98546.92;1731721;82;20978;-66
2021/07/31 07:30:29;;;;;;;10.43;4.30;;;;;;;28.43;100.00;98554.28;1731857;82;21815;-65
2021/07/31 07:32:58;;;;;;;5.10;3.87;;;;;;;28.54;100.00;98556.03;1727655;82;21409;-65
2021/07/31 07:35:26;;;;;;;4.28;3.55;;;;;;;28.64;100.00;98562.35;1723641;83;20946;-67
2021/07/31 07:37:55;;;;;;;7.25;3.85;;;;;;;28.73;100.00;98556.09;1731678;82;20871;-65
2021/07/31 07:40:23;;;;;;;8.00;3.65;;;;;;;28.82;100.00;98560.70;1731615;83;21032;-65
2021/07/31 07:42:51;;;;;;;5.72;3.60;;;;;;;28.94;100.00;98560.14;1731702;83;21802;-65
2021/07/31 07:45:19;;;;;;;4.65;3.77;;;;;;;29.02;100.00;98560.31;1731478;82;21491;-66
2021/07/31 07:47:48;;;;;;;5.90;3.60;;;;;;;29.08;97.88;98561.11;1731585;82;21559;-66
2021/07/31 07:50:16;;;;;;;7.25;3.87;;;;;;;29.14;94.31;98559.69;1731602;82;21008;-69
2021/07/31 07:52:46;;;;;;;7.08;3.60;;;;;;;29.21;95.57;98561.34;1731701;82;20969;-68
2021/07/31 07:55:14;;;;;;;4.90;3.75;;;;;;;29.25;91.89;98558.20;1723111;83;21189;-69
2021/07/31 07:57:43;;;;;;;4.22;3.47;;;;;;;29.28;87.10;98560.63;1713822;83;20879;-70
2021/07/31 08:00:13;;;;;;;6.22;3.85;;;;;;;29.34;87.88;98551.95;1713467;83;20974;-66
2021/07/31 08:02:40;;;;;;;9.78;3.80;;;;;;;29.39;87.16;98544.23;1714124;83;20876;-64
2021/07/31 08:05:11;;;;;;;4.65;3.87;;;;;;;29.47;88.59;98545.41;1713999;83;20923;-67
2021/07/31 08:07:41;;;;;;;20.57;4.05;;;;;;;29.53;85.77;98543.47;1714393;83;21169;-66
2021/07/31 08:10:10;;;;;;;10.00;4.00;;;;;;;29.64;86.23;98545.53;1713983;83;21537;-66
2021/07/31 08:12:38;;;;;;;6.55;3.58;;;;;;;29.74;85.14;98546.88;1714275;83;20887;-65
2021/07/31 08:15:07;;;;;;;8.95;3.50;;;;;;;29.79;80.65;98552.74;1714007;83;21462;-66
2021/07/31 08:17:37;;;;;;;8.10;3.37;;;;;;;29.84;77.39;98552.34;1714273;83;20915;-72
2021/07/31 08:20:06;;;;;;;7.58;3.20;;;;;;;29.91;75.11;98557.05;1714337;83;21169;-66
2021/07/31 08:22:37;;;;;;;5.97;3.52;;;;;;;29.95;74.14;98554.39;1714198;83;21006;-64
2021/07/31 08:25:06;;;;;;;8.03;3.75;;;;;;;29.99;75.61;98554.45;1713972;83;20931;-65
2021/07/31 08:27:34;;;;;;;6.28;3.77;;;;;;;30.03;74.31;98551.83;1710496;83;20899;-64
2021/07/31 08:30:02;;;;;;;7.47;3.72;;;;;;;30.04;75.63;98546.75;1715103;83;20984;-65
2021/07/31 08:32:32;;;;;;;10.38;4.25;;;;;;;29.98;74.10;98554.60;1713899;83;21138;-65
2021/07/31 08:35:02;;;;;;;4.92;4.08;;;;;;;29.88;79.00;98554.63;1710609;83;21084;-63
2021/07/31 08:37:31;;;;;;;8.83;4.40;;;;;;;29.70;85.60;98557.19;1713613;83;21042;-64
2021/07/31 08:40:01;;;;;;;5.58;4.10;;;;;;;29.56;90.55;98556.27;1710108;83;21026;-63
2021/07/31 08:42:31;;;;;;;7.28;4.65;;;;;;;29.51;94.10;98553.63;1713650;83;20935;-65
2021/07/31 08:44:59;;;;;;;5.75;4.37;;;;;;;29.52;95.67;98538.53;1710927;83;21168;-65
2021/07/31 08:47:29;;;;;;;4.30;3.90;;;;;;;29.62;95.99;98544.82;1702337;84;21522;-65
2021/07/31 08:49:56;;;;;;;6.92;4.15;;;;;;;29.74;95.65;98546.38;1702311;84;20984;-65
2021/07/31 08:52:24;;;;;;;7.22;4.45;;;;;;;29.89;94.67;98552.77;1702348;84;21498;-65
2021/07/31 08:54:52;;;;;;;4.37;3.98;;;;;;;30.02;93.75;98542.46;1702273;84;20966;-65
2021/07/31 08:57:20;;;;;;;7.72;3.77;;;;;;;30.07;92.95;98538.30;1702378;84;21175;-66
2021/07/31 08:59:48;;;;;;;8.40;4.20;;;;;;;30.15;91.15;98543.50;1702406;84;20881;-67
2021/07/31 09:02:17;;;;;;;9.40;4.60;;;;;;;30.27;91.72;98549.12;1702580;84;20927;-66
2021/07/31 09:04:44;;;;;;;8.63;4.08;;;;;;;30.35;91.75;98547.41;1702158;84;20958;-68
2021/07/31 09:07:13;;;;;;;12.10;4.22;;;;;;;30.46;86.70;98541.41;1702155;84;20866;-67
2021/07/31 09:09:40;;;;;;;10.55;4.28;;;;;;;30.59;83.49;98540.09;1701796;84;21149;-66
2021/07/31 09:12:10;;;;;;;10.60;3.87;;;;;;;30.73;86.81;98536.02;1698168;84;21227;-66
2021/07/31 09:14:46;;;;;;;4.60;4.20;;;;;;;30.82;85.04;98542.45;1692298;83;20914;-68
2021/07/31 09:17:25;;;;;;;6.28;4.37;;;;;;;30.83;80.89;98535.99;1681926;83;20942;-66
2021/07/31 09:19:55;;;;;;;5.85;4.30;;;;;;;30.79;81.78;98529.99;1706769;83;21018;-68
2021/07/31 09:22:23;;;;;;;5.37;4.22;;;;;;;30.72;76.67;98528.00;1679177;85;21155;-68
2021/07/31 09:25:10;;;;;;;5.90;4.00;;;;;;;30.65;79.67;98525.88;1637013;84;21489;-69
2021/07/31 09:27:38;;;;;;;11.05;4.72;;;;;;;30.67;79.31;98518.92;1688407;84;21519;-69
2021/07/31 09:30:07;;;;;;;7.47;4.08;;;;;;;30.63;79.66;98521.09;1689959;84;21067;-68
2021/07/31 09:32:40;;;;;;;5.28;4.03;;;;;;;30.59;81.35;98526.95;1694731;84;21003;-68
2021/07/31 09:35:23;;;;;;;6.67;3.90;;;;;;;30.58;82.94;98523.37;1690297;83;21151;-68
2021/07/31 09:37:53;;;;;;;4.33;3.52;;;;;;;30.62;80.89;98515.80;1680518;85;20942;-68
2021/07/31 09:40:32;;;;;;;14.45;4.15;;;;;;;30.70;82.67;98516.75;1696862;84;20856;-64
2021/07/31 09:43:17;;;;;;;9.10;3.92;;;;;;;30.75;81.81;98519.05;1652909;86;21528;-66
2021/07/31 09:45:48;;;;;;;4.05;3.65;;;;;;;30.59;77.57;98516.96;1691710;81;21078;-65
2021/07/31 09:48:16;;;;;;;6.95;4.10;;;;;;;30.42;76.40;98519.09;1718948;81;22048;-65
2021/07/31 09:50:46;;;;;;;7.75;4.03;;;;;;;30.43;78.04;98524.03;1709923;81;21047;-67
2021/07/31 09:53:21;;;;;;;6.15;3.98;;;;;;;30.51;72.95;98524.13;1711357;82;21491;-66
2021/07/31 09:55:55;;;;;;;7.90;4.28;;;;;;;30.62;72.10;98526.19;1719858;81;21531;-66
2021/07/31 09:58:23;;;;;;;6.70;4.15;;;;;;;30.73;68.96;98519.68;1721205;81;21047;-67
2021/07/31 10:00:53;;;;;;;5.30;3.65;;;;;;;30.85;64.71;98522.58;1724044;82;21424;-66
2021/07/31 10:03:21;;;;;;;6.05;4.05;;;;;;;30.96;61.14;98519.64;1739597;81;20886;-66
2021/07/31 10:05:50;;;;;;;4.40;3.90;;;;;;;31.09;59.05;98513.81;1739513;82;20966;-66
2021/07/31 10:08:19;;;;;;;6.42;3.98;;;;;;;31.22;58.75;98510.77;1711178;82;20996;-67
2021/07/31 10:10:47;;;;;;;4.05;3.65;;;;;;;31.36;61.20;98506.64;1711310;82;21467;-67
2021/07/31 10:13:15;;;;;;;4.25;3.83;;;;;;;31.50;60.37;98506.09;1711262;82;21053;-67
2021/07/31 10:15:45;;;;;;;7.35;4.17;;;;;;;31.61;58.79;98503.11;1711494;82;20916;-67
2021/07/31 10:18:13;;;;;;;4.00;3.60;;;;;;;31.69;57.12;98504.55;1718675;82;20943;-67
2021/07/31 10:20:41;;;;;;;6.45;3.45;;;;;;;31.74;57.03;98498.67;1718956;82;21022;-67
2021/07/31 10:23:08;;;;;;;7.58;3.80;;;;;;;31.81;58.43;98501.11;1719359;83;21046;-67
2021/07/31 10:25:40;;;;;;;7.30;3.35;;;;;;;31.89;58.71;98495.20;1718398;82;21154;-65
2021/07/31 10:28:28;;;;;;;5.10;3.72;;;;;;;31.99;59.36;98500.55;1677682;83;21588;-65
2021/07/31 10:31:28;;;;;;;5.28;3.42;;;;;;;32.05;59.32;98499.91;1731461;82;20994;-66
2021/07/31 10:33:56;;;;;;;4.00;3.20;;;;;;;32.13;56.38;98493.14;1731366;83;21068;-66
2021/07/31 10:36:35;;;;;;;4.60;3.50;;;;;;;32.18;53.84;98489.96;1731449;81;20918;-67
2021/07/31 10:39:27;;;;;;;10.50;3.35;;;;;;;32.31;53.14;98489.03;1731380;82;21129;-65
2021/07/31 10:41:59;;;;;;;10.58;3.47;;;;;;;32.42;54.31;98486.02;1731329;83;20934;-66
2021/07/31 10:44:27;;;;;;;12.20;3.50;;;;;;;32.46;53.24;98479.72;1731429;81;21002;-67
2021/07/31 10:47:24;;;;;;;5.95;3.60;;;;;;;32.45;54.09;98484.33;1731484;81;21349;-67
2021/07/31 10:49:53;;;;;;;4.70;3.27;;;;;;;32.45;53.48;98480.73;1728887;83;20890;-66
2021/07/31 10:53:03;;;;;;;4.30;3.45;;;;;;;32.45;54.51;98478.86;1731774;81;21096;-65
2021/07/31 10:55:45;;;;;;;5.28;3.25;;;;;;;32.41;53.32;98478.84;1732012;81;21370;-64
2021/07/31 10:58:18;;;;;;;7.00;3.60;;;;;;;32.29;57.18;98477.42;1731703;81;21069;-65
2021/07/31 11:00:49;;;;;;;30.65;4.80;;;;;;;32.21;56.44;98473.27;1731867;81;20941;-66
2021/07/31 11:03:23;;;;;;;10.78;4.00;;;;;;;32.23;56.41;98467.13;1731806;83;20874;-64
2021/07/31 11:06:00;;;;;;;6.75;3.58;;;;;;;32.30;55.67;98468.73;1731638;83;21523;-65
2021/07/31 11:08:36;;;;;;;50.83;7.97;;;;;;;32.38;55.21;98466.03;1731559;83;20930;-65
2021/07/31 11:11:18;;;;;;;8.00;3.47;;;;;;;32.45;53.27;98461.13;1728586;83;20867;-66
2021/07/31 11:13:51;;;;;;;7.60;3.70;;;;;;;32.53;52.84;98463.03;1731647;81;21456;-66
2021/07/31 11:16:26;;;;;;;9.88;3.70;;;;;;;32.53;51.66;98461.66;1731954;81;20933;-66
2021/07/31 11:18:59;;;;;;;17.57;5.22;;;;;;;32.42;52.13;98464.69;1731665;81;21175;-67
2021/07/31 11:21:25;;;;;;;8.83;3.47;;;;;;;32.23;53.07;98458.44;1731006;82;20957;-68
2021/07/31 11:23:57;;;;;;;9.13;3.75;;;;;;;32.06;54.52;98453.03;1731813;81;20859;-66
2021/07/31 11:26:51;;;;;;;4.85;3.95;;;;;;;31.92;57.41;98452.61;1731881;82;20950;-67
2021/07/31 11:29:26;;;;;;;4.70;3.33;;;;;;;31.79;60.24;98449.45;1726619;82;20968;-67
2021/07/31 11:32:19;;;;;;;6.28;3.52;;;;;;;31.70;61.04;98447.69;1718329;81;21094;-67
2021/07/31 11:34:45;;;;;;;26.02;5.60;;;;;;;31.76;63.19;98449.78;1719872;82;21090;-67
2021/07/31 11:37:14;;;;;;;10.55;4.05;;;;;;;31.86;62.65;98443.71;1718781;82;20916;-67